Time;durP1;ratioP1;P1;durP2;ratioP2;P2;SDS_P1;SDS_P2;PMS_P1;PMS_P2;Temp;Humidity;BMP_temperature;BMP_pressure;BME280_temperature;BME280_humidity;BME280_pressure;Samples;Min_cycle;Max_cycle;Signal;HPM_P1;HPM_P2
2022/10/04 00:00:46;;;;;;;1.95;0.90;;;;;;;15.54;52.86;98315.34;5093359;28;20160;-59
2022/10/04 00:03:25;;;;;;;1.02;0.80;;;;;;;15.45;52.87;98316.16;5093251;28;20183;-59
2022/10/04 00:05:55;;;;;;;2.45;1.05;;;;;;;15.47;52.24;98322.06;5093338;28;20241;-59
2022/10/04 00:08:26;;;;;;;4.32;1.20;;;;;;;15.58;51.90;98321.09;5093199;28;20190;-59
2022/10/04 00:11:25;;;;;;;2.00;0.77;;;;;;;15.57;51.99;98316.84;5093023;28;20192;-59
2022/10/04 00:14:00;;;;;;;1.30;1.10;;;;;;;15.57;51.78;98317.66;5093394;28;20169;-59
2022/10/04 00:16:39;;;;;;;0.90;0.90;;;;;;;15.41;51.43;98324.38;5093008;28;20171;-59
2022/10/04 00:19:14;;;;;;;3.85;0.90;;;;;;;15.50;50.99;98313.13;5093051;28;20156;-59
2022/10/04 00:21:55;;;;;;;2.03;1.02;;;;;;;15.54;51.17;98323.16;5093120;28;20164;-59
2022/10/04 00:24:29;;;;;;;1.20;0.95;;;;;;;15.46;51.56;98322.19;5093128;28;20217;-59
2022/10/04 00:27:01;;;;;;;1.35;0.80;;;;;;;15.47;51.69;98326.44;5092728;28;20195;-59
2022/10/04 00:29:36;;;;;;;3.25;0.93;;;;;;;15.56;51.49;98317.81;5092235;28;20172;-59
2022/10/04 00:32:07;;;;;;;1.17;0.73;;;;;;;15.46;51.93;98320.41;5093070;28;20160;-59
2022/10/04 00:34:46;;;;;;;0.98;0.80;;;;;;;15.32;52.37;98330.38;5092673;28;20633;-59
2022/10/04 00:37:16;;;;;;;1.40;1.30;;;;;;;15.38;52.02;98324.66;5092913;28;20550;-59
2022/10/04 00:39:45;;;;;;;1.88;1.05;;;;;;;15.42;51.52;98337.31;5092720;28;20208;-59
2022/10/04 00:42:37;;;;;;;1.20;1.00;;;;;;;15.49;51.19;98338.41;5092522;28;20168;-59
2022/10/04 00:45:13;;;;;;;1.67;0.95;;;;;;;15.31;51.87;98334.78;5092493;28;20161;-59
2022/10/04 00:47:44;;;;;;;1.45;1.10;;;;;;;15.33;51.75;98319.84;5092796;28;20565;-59
2022/10/04 00:50:13;;;;;;;0.80;0.80;;;;;;;15.34;51.69;98318.88;5092400;28;20183;-59
2022/10/04 00:52:44;;;;;;;3.55;0.90;;;;;;;15.31;51.80;98319.16;5092523;28;20172;-59
2022/10/04 00:55:24;;;;;;;2.42;1.00;;;;;;;15.33;51.74;98326.88;5092447;28;20157;-59
2022/10/04 00:57:58;;;;;;;2.75;1.00;;;;;;;15.44;51.14;98329.31;5092910;28;20225;-59
2022/10/04 01:00:24;;;;;;;1.50;1.00;;;;;;;15.47;51.24;98313.41;5092305;28;20290;-59
2022/10/04 01:02:57;;;;;;;1.60;0.90;;;;;;;15.42;51.64;98315.59;5092809;28;20208;-59
2022/10/04 01:05:52;;;;;;;0.70;0.70;;;;;;;15.35;51.96;98319.72;5092178;28;20192;-59
2022/10/04 01:08:35;;;;;;;3.25;1.00;;;;;;;15.40;51.65;98320.16;5089860;28;20271;-59
2022/10/04 01:11:14;;;;;;;1.00;1.00;;;;;;;15.42;51.60;98315.59;5092349;28;20196;-59
2022/10/04 01:13:46;;;;;;;0.77;0.77;;;;;;;15.38;51.76;98324.66;5092542;28;20199;-59
2022/10/04 01:16:15;;;;;;;1.52;1.38;;;;;;;15.42;51.12;98331.25;5092313;28;20554;-59
2022/10/04 01:18:41;;;;;;;2.20;0.90;;;;;;;15.40;51.66;98333.19;5092159;28;20621;-59
2022/10/04 01:21:18;;;;;;;0.88;0.80;;;;;;;15.36;51.95;98327.41;5092031;28;20187;-59
2022/10/04 01:23:47;;;;;;;1.70;0.80;;;;;;;15.43;51.23;98327.69;5092322;28;20172;-59
2022/10/04 01:26:33;;;;;;;3.05;0.90;;;;;;;15.39;51.45;98334.16;5091919;28;20248;-59
2022/10/04 01:29:00;;;;;;;0.80;0.80;;;;;;;15.39;51.45;98337.56;5092299;28;20168;-59
2022/10/04 01:31:27;;;;;;;2.80;1.00;;;;;;;15.46;50.93;98340.47;5090690;28;20183;-59
2022/10/04 01:33:54;;;;;;;2.17;0.90;;;;;;;15.48;50.73;98326.31;5091895;28;20656;-59
2022/10/04 01:36:20;;;;;;;1.45;0.80;;;;;;;15.48;50.85;98336.75;5091939;28;20172;-59
2022/10/04 01:38:46;;;;;;;1.55;0.80;;;;;;;15.40;51.14;98327.97;5091943;28;20197;-59
2022/10/04 01:41:16;;;;;;;1.30;0.90;;;;;;;15.50;50.87;98339.19;5094056;28;20234;-59
2022/10/04 01:43:46;;;;;;;1.50;0.88;;;;;;;15.47;50.60;98329.91;5096244;28;20156;-59
2022/10/04 01:46:25;;;;;;;1.20;1.08;;;;;;;15.46;51.15;98324.81;5095820;28;20764;-59
2022/10/04 01:48:52;;;;;;;2.35;0.70;;;;;;;15.47;51.33;98340.31;5095877;28;20638;-58
2022/10/04 01:51:25;;;;;;;1.00;1.00;;;;;;;15.46;51.31;98338.66;5095809;28;20177;-58
2022/10/04 01:53:59;;;;;;;1.40;1.30;;;;;;;15.52;51.23;98329.47;5096047;28;20203;-59
2022/10/04 01:56:33;;;;;;;5.60;1.30;;;;;;;15.41;51.72;98332.22;5095749;28;20161;-59
2022/10/04 01:59:05;;;;;;;1.30;1.20;;;;;;;15.39;51.61;98332.34;5095988;28;20172;-58
2022/10/04 02:01:55;;;;;;;1.17;1.17;;;;;;;15.42;51.59;98337.31;5095853;28;20203;-59
2022/10/04 02:04:26;;;;;;;2.17;0.88;;;;;;;15.45;51.26;98341.41;5083741;28;20192;-59
2022/10/04 02:06:54;;;;;;;1.10;1.10;;;;;;;15.35;51.00;98343.19;5096083;28;20211;-58
2022/10/04 02:09:24;;;;;;;2.63;1.13;;;;;;;15.28;51.13;98340.25;5095497;28;20172;-58
2022/10/04 02:11:52;;;;;;;2.10;1.20;;;;;;;15.23;51.40;98339.84;5095394;28;20277;-59
2022/10/04 02:14:21;;;;;;;1.02;1.02;;;;;;;15.29;51.20;98351.53;5095591;28;20214;-59
2022/10/04 02:16:52;;;;;;;1.17;1.10;;;;;;;15.33;51.00;98342.50;5095258;28;20668;-59
2022/10/04 02:19:22;;;;;;;2.13;1.20;;;;;;;15.35;51.40;98353.63;5095136;28;20611;-59
2022/10/04 02:21:49;;;;;;;1.23;1.23;;;;;;;15.45;51.04;98357.88;5095304;28;20171;-59
2022/10/04 02:24:15;;;;;;;1.38;1.27;;;;;;;15.44;51.08;98348.41;5095218;28;20180;-59
2022/10/04 02:26:41;;;;;;;1.17;1.17;;;;;;;15.36;51.15;98337.00;5095167;28;20204;-59
2022/10/04 02:29:08;;;;;;;1.27;1.17;;;;;;;15.38;51.15;98345.50;5095071;28;20237;-59
2022/10/04 02:34:22;;;;;;;1.08;0.98;;;;;;;15.40;51.79;98361.84;5095152;28;20176;-59
2022/10/04 02:36:50;;;;;;;2.28;1.20;;;;;;;15.35;51.56;98364.06;5095018;28;20184;-59
2022/10/04 02:39:27;;;;;;;1.15;1.00;;;;;;;15.32;52.19;98353.84;5095144;28;20172;-59
2022/10/04 02:42:11;;;;;;;5.45;1.30;;;;;;;15.34;51.94;98359.81;5095105;28;20175;-59
2022/10/04 02:44:51;;;;;;;1.25;1.15;;;;;;;15.39;51.74;98368.84;5094890;28;20230;-59
2022/10/04 02:47:24;;;;;;;2.40;1.10;;;;;;;15.41;51.60;98363.50;5094724;28;20182;-59
2022/10/04 02:50:17;;;;;;;1.55;1.20;;;;;;;15.36;51.80;98353.50;5093407;28;20654;-59
2022/10/04 02:52:48;;;;;;;1.45;1.35;;;;;;;15.35;52.35;98357.06;5092788;28;20630;-59
2022/10/04 02:55:22;;;;;;;1.52;1.00;;;;;;;15.36;52.14;98357.88;5094565;28;20646;-59
2022/10/04 02:57:48;;;;;;;1.00;1.00;;;;;;;15.34;52.33;98365.00;5094869;28;20548;-59
2022/10/04 03:00:17;;;;;;;1.13;1.13;;;;;;;15.37;52.44;98359.50;5094494;28;20183;-59
2022/10/04 03:03:20;;;;;;;2.72;1.35;;;;;;;15.37;52.79;98364.72;5094707;28;20245;-59
2022/10/04 03:05:57;;;;;;;2.35;1.15;;;;;;;15.30;53.09;98354.00;5094204;28;20237;-59
2022/10/04 03:08:22;;;;;;;1.15;1.10;;;;;;;15.08;53.93;98359.44;5095094;28;20224;-59
2022/10/04 03:10:49;;;;;;;1.20;1.00;;;;;;;15.20;53.56;98366.19;5094421;28;20188;-59
2022/10/04 03:13:16;;;;;;;1.33;1.25;;;;;;;15.19;53.84;98368.94;5094307;28;20250;-59
2022/10/04 03:15:42;;;;;;;0.90;0.90;;;;;;;15.22;53.20;98371.28;5094495;28;20176;-59
2022/10/04 03:18:08;;;;;;;1.48;1.33;;;;;;;15.24;53.09;98353.72;5094170;28;20251;-59
2022/10/04 03:20:39;;;;;;;1.00;1.00;;;;;;;15.05;53.50;98367.50;5093994;28;20739;-59
2022/10/04 03:23:06;;;;;;;1.25;1.20;;;;;;;15.04;53.29;98367.69;5094081;28;20172;-59
2022/10/04 03:26:14;;;;;;;1.00;1.00;;;;;;;15.01;53.38;98373.13;5092601;28;20257;-59
2022/10/04 03:28:39;;;;;;;1.08;0.98;;;;;;;14.96;53.64;98364.91;5093487;28;20561;-59
2022/10/04 03:31:05;;;;;;;1.05;1.05;;;;;;;14.99;53.69;98364.66;5093813;28;20179;-59
2022/10/04 03:33:31;;;;;;;1.05;1.02;;;;;;;14.97;54.09;98366.53;5092548;28;20591;-59
2022/10/04 03:35:59;;;;;;;0.93;0.93;;;;;;;14.97;53.72;98362.16;5093979;28;20199;-59
2022/10/04 03:38:27;;;;;;;1.20;1.20;;;;;;;14.98;53.91;98366.41;5093764;28;20634;-59
2022/10/04 03:40:59;;;;;;;1.70;1.48;;;;;;;14.84;54.02;98364.19;5093683;28;20177;-59
2022/10/04 03:43:30;;;;;;;1.30;1.20;;;;;;;14.86;53.96;98367.47;5093661;28;20233;-59
2022/10/04 03:45:57;;;;;;;2.47;1.13;;;;;;;15.02;53.12;98372.16;5093502;28;20180;-59
2022/10/04 03:48:36;;;;;;;2.38;1.13;;;;;;;14.99;53.49;98375.88;5093395;28;20188;-59
2022/10/04 03:51:06;;;;;;;1.40;1.10;;;;;;;15.00;52.94;98367.09;5093456;28;20259;-59
2022/10/04 03:53:35;;;;;;;0.90;0.90;;;;;;;15.22;51.47;98376.50;5093442;28;20235;-59
2022/10/04 03:56:07;;;;;;;1.65;1.10;;;;;;;15.21;51.48;98382.66;5093567;28;20176;-59
2022/10/04 03:58:32;;;;;;;1.38;1.00;;;;;;;15.28;51.54;98375.94;5093497;28;20164;-59
2022/10/04 04:00:59;;;;;;;1.13;1.13;;;;;;;15.27;51.39;98374.31;5093368;28;20267;-59
2022/10/04 04:03:28;;;;;;;0.93;0.93;;;;;;;15.26;51.23;98370.88;5092737;28;20204;-59
2022/10/04 04:05:59;;;;;;;2.85;1.00;;;;;;;15.25;51.33;98391.84;5091313;28;20208;-59
2022/10/04 04:08:31;;;;;;;0.90;0.90;;;;;;;15.27;50.97;98389.94;5093122;28;20217;-59
2022/10/04 04:10:59;;;;;;;1.73;0.90;;;;;;;15.17;51.30;98387.28;5093140;28;20625;-59
2022/10/04 04:14:05;;;;;;;1.35;1.10;;;;;;;15.07;51.45;98383.88;5093063;28;20180;-59
2022/10/04 04:16:31;;;;;;;0.82;0.77;;;;;;;15.19;51.26;98395.00;5093633;28;20606;-59
2022/10/04 04:19:00;;;;;;;0.70;0.70;;;;;;;15.13;50.77;98392.91;5092724;28;20191;-59
2022/10/04 04:21:27;;;;;;;1.02;1.00;;;;;;;15.11;51.29;98387.03;5093533;28;20592;-59
2022/10/04 04:23:57;;;;;;;2.83;1.02;;;;;;;15.09;51.06;98386.31;5093102;28;20180;-59
2022/10/04 04:26:45;;;;;;;0.95;0.90;;;;;;;15.15;51.08;98397.03;5093019;28;20207;-59
2022/10/04 04:29:36;;;;;;;2.50;1.50;;;;;;;15.10;51.15;98399.22;5093229;28;20240;-59
2022/10/04 04:32:10;;;;;;;1.85;1.20;;;;;;;15.12;51.16;98399.94;5061640;28;20192;-57
2022/10/04 04:35:29;;;;;;;0.88;0.88;;;;;;;15.11;50.86;98398.25;5092799;28;20160;-59
2022/10/04 04:38:04;;;;;;;2.30;0.70;;;;;;;15.19;50.54;98414.06;5011118;28;20171;-59
2022/10/04 04:40:30;;;;;;;0.98;0.80;;;;;;;15.23;50.33;98399.78;5091300;28;20188;-59
2022/10/04 04:43:00;;;;;;;0.90;0.90;;;;;;;15.32;50.19;98403.38;5092899;28;20259;-59
2022/10/04 04:45:29;;;;;;;0.70;0.70;;;;;;;15.27;50.58;98405.59;5093014;28;20198;-60
2022/10/04 04:48:00;;;;;;;1.38;0.90;;;;;;;15.32;49.72;98393.81;5092745;28;20172;-59
2022/10/04 04:50:32;;;;;;;1.02;0.70;;;;;;;15.35;49.59;98410.97;5091214;28;20695;-59
2022/10/04 04:53:13;;;;;;;1.10;1.00;;;;;;;15.33;49.88;98420.72;5092623;28;20317;-60
2022/10/04 04:55:46;;;;;;;2.38;0.90;;;;;;;15.31;49.47;98418.22;5092419;28;20153;-57
2022/10/04 04:58:21;;;;;;;0.80;0.80;;;;;;;15.27;49.69;98410.81;5092244;28;20657;-58
2022/10/04 05:00:58;;;;;;;2.53;0.85;;;;;;;15.23;49.47;98433.69;5092304;28;20203;-58
2022/10/04 05:03:24;;;;;;;1.33;0.70;;;;;;;15.23;49.75;98419.84;5092573;28;20191;-57
2022/10/04 05:05:50;;;;;;;0.82;0.82;;;;;;;15.27;49.91;98426.44;5092130;28;20192;-60
2022/10/04 05:08:19;;;;;;;0.95;0.85;;;;;;;15.33;49.79;98420.72;5092475;28;20179;-58
2022/10/04 05:11:07;;;;;;;2.22;0.82;;;;;;;15.33;49.95;98423.34;5092322;28;20200;-57
2022/10/04 05:13:51;;;;;;;1.10;0.85;;;;;;;15.29;49.87;98434.94;5079493;28;20211;-58
2022/10/04 05:16:23;;;;;;;0.90;0.90;;;;;;;15.30;49.58;98424.41;5091962;28;20249;-58
2022/10/04 05:19:04;;;;;;;0.80;0.80;;;;;;;15.31;49.71;98418.22;5092087;28;20160;-57
2022/10/04 05:21:32;;;;;;;1.05;0.70;;;;;;;15.39;49.59;98433.22;5092195;28;20164;-57
2022/10/04 05:24:07;;;;;;;3.10;0.80;;;;;;;15.44;49.72;98428.41;5092036;28;20180;-58
2022/10/04 05:26:32;;;;;;;0.70;0.70;;;;;;;15.39;49.42;98443.66;5092195;28;20653;-58
2022/10/04 05:29:06;;;;;;;1.85;0.90;;;;;;;15.32;49.84;98429.44;5092138;28;20229;-58
2022/10/04 05:31:49;;;;;;;0.80;0.80;;;;;;;15.33;49.87;98436.38;5092269;28;20247;-58
2022/10/04 05:34:26;;;;;;;1.25;0.73;;;;;;;15.31;50.74;98446.06;5091696;28;20180;-58
2022/10/04 05:36:54;;;;;;;0.80;0.80;;;;;;;15.38;50.79;98436.75;5091617;28;20171;-59
2022/10/04 05:39:28;;;;;;;2.15;1.00;;;;;;;15.47;50.22;98444.63;5091911;28;20187;-58
2022/10/04 05:42:20;;;;;;;0.93;0.70;;;;;;;15.48;49.54;98442.84;5092071;28;20200;-59
2022/10/04 05:44:53;;;;;;;0.88;0.80;;;;;;;15.51;49.77;98447.78;5091938;28;20164;-59
2022/10/04 05:47:27;;;;;;;0.70;0.70;;;;;;;15.53;49.63;98448.47;5091828;28;20189;-59
2022/10/04 05:49:56;;;;;;;1.23;0.80;;;;;;;15.57;49.44;98455.88;5091538;28;20167;-58
2022/10/04 05:52:24;;;;;;;0.80;0.80;;;;;;;15.61;49.13;98459.88;5091590;28;20771;-59
2022/10/04 05:55:27;;;;;;;0.77;0.75;;;;;;;15.54;49.75;98477.03;5091775;28;20259;-58
2022/10/04 05:58:36;;;;;;;1.45;1.02;;;;;;;15.57;49.71;98470.72;5091706;28;20176;-58
2022/10/04 06:01:11;;;;;;;0.80;0.80;;;;;;;15.61;50.01;98467.72;5091586;28;20176;-58
2022/10/04 06:03:46;;;;;;;2.33;1.10;;;;;;;15.68;49.83;98466.19;5090408;28;20608;-59
2022/10/04 06:06:29;;;;;;;0.80;0.63;;;;;;;15.71;50.17;98483.38;5091754;28;20188;-59
2022/10/04 06:09:06;;;;;;;0.82;0.70;;;;;;;15.76;49.70;98475.97;5091899;28;20175;-59
2022/10/04 06:11:52;;;;;;;1.55;0.80;;;;;;;15.86;48.94;98482.03;5091745;28;20223;-58
2022/10/04 06:14:41;;;;;;;1.55;0.90;;;;;;;15.95;49.45;98487.25;5092028;28;20188;-58
2022/10/04 06:17:23;;;;;;;1.58;0.70;;;;;;;15.96;48.99;98493.28;5091718;28;20161;-59
2022/10/04 06:20:10;;;;;;;0.60;0.60;;;;;;;16.02;49.24;98500.56;5091557;28;20192;-58
2022/10/04 06:22:43;;;;;;;0.70;0.70;;;;;;;15.96;49.17;98506.34;5091726;28;20176;-58
2022/10/04 06:25:36;;;;;;;0.75;0.75;;;;;;;15.97;48.79;98511.41;5091242;28;20622;-59
2022/10/04 06:28:40;;;;;;;0.95;0.80;;;;;;;15.90;49.28;98509.47;5066769;28;20588;-58
2022/10/04 06:31:17;;;;;;;0.82;0.77;;;;;;;15.95;49.30;98518.56;5086797;28;20194;-59
2022/10/04 06:33:46;;;;;;;0.73;0.73;;;;;;;15.98;49.41;98513.06;5093823;28;20204;-59
2022/10/04 06:36:36;;;;;;;0.90;0.90;;;;;;;15.96;50.00;98519.38;5095217;28;20168;-59
2022/10/04 06:39:22;;;;;;;2.58;0.80;;;;;;;16.01;50.32;98522.41;5094867;28;20659;-59
2022/10/04 06:42:18;;;;;;;0.98;0.70;;;;;;;16.08;49.35;98526.13;5095016;28;20174;-59
2022/10/04 06:44:59;;;;;;;0.80;0.80;;;;;;;16.10;49.52;98521.59;5095107;28;20222;-59
2022/10/04 06:47:47;;;;;;;1.63;0.80;;;;;;;16.10;49.89;98525.03;5095035;28;20164;-58
2022/10/04 06:50:32;;;;;;;0.70;0.70;;;;;;;16.07;49.77;98521.88;5094696;28;20165;-58
2022/10/04 06:53:33;;;;;;;2.83;0.73;;;;;;;16.05;49.88;98534.25;5094967;28;20184;-58
2022/10/04 06:56:06;;;;;;;0.80;0.80;;;;;;;15.97;49.97;98527.09;5094397;28;20198;-58
2022/10/04 06:59:06;;;;;;;0.73;0.73;;;;;;;15.91;50.37;98521.59;5094529;28;20241;-59
2022/10/04 07:01:44;;;;;;;0.85;0.85;;;;;;;15.85;50.33;98525.56;5094604;28;20696;-58
2022/10/04 07:04:34;;;;;;;0.80;0.80;;;;;;;15.87;50.84;98515.00;5094555;28;20643;-58
2022/10/04 07:09:59;;;;;;;1.92;0.70;;;;;;;15.83;50.41;98524.03;5094223;28;20196;-58
2022/10/04 07:12:25;;;;;;;1.65;0.90;;;;;;;15.86;50.82;98535.03;5094047;28;20315;-59
2022/10/04 07:14:54;;;;;;;0.70;0.70;;;;;;;15.92;51.40;98518.03;5094333;28;20619;-58
2022/10/04 07:17:28;;;;;;;0.60;0.60;;;;;;;15.99;50.21;98533.00;5094169;28;20164;-57
2022/10/04 07:19:56;;;;;;;1.10;0.80;;;;;;;16.09;50.10;98530.41;5094095;28;20606;-59
2022/10/04 07:22:28;;;;;;;1.85;0.90;;;;;;;16.13;50.04;98539.59;5094222;28;20183;-60
2022/10/04 07:25:27;;;;;;;3.00;1.00;;;;;;;16.16;50.05;98537.53;5094016;28;20168;-58
2022/10/04 07:30:58;;;;;;;1.00;0.80;;;;;;;16.14;50.43;98554.28;5094333;28;20190;-60
2022/10/04 07:33:27;;;;;;;0.77;0.70;;;;;;;16.17;49.56;98552.25;5094065;28;20167;-58
2022/10/04 07:36:10;;;;;;;0.70;0.60;;;;;;;16.24;49.86;98560.34;5094162;28;20164;-58
2022/10/04 07:38:46;;;;;;;0.93;0.93;;;;;;;16.33;49.57;98554.31;5093782;28;20217;-59
2022/10/04 07:41:22;;;;;;;0.80;0.80;;;;;;;16.29;49.06;98568.59;5094059;28;20565;-58
2022/10/04 07:43:56;;;;;;;0.90;0.90;;;;;;;16.34;49.79;98562.03;5093707;28;20175;-58
2022/10/04 07:46:41;;;;;;;1.10;0.90;;;;;;;16.38;49.50;98571.25;5093723;28;20187;-58
2022/10/04 07:49:19;;;;;;;0.70;0.70;;;;;;;16.40;49.41;98578.97;5092998;28;20203;-59
2022/10/04 07:52:15;;;;;;;1.88;0.70;;;;;;;16.42;49.25;98569.19;5093594;28;20656;-59
2022/10/04 07:54:53;;;;;;;0.90;0.90;;;;;;;16.46;49.04;98566.19;5093438;28;20305;-58
2022/10/04 07:57:19;;;;;;;0.70;0.70;;;;;;;16.60;49.21;98572.75;5093648;28;20690;-58
2022/10/04 08:00:19;;;;;;;0.63;0.63;;;;;;;16.78;48.61;98578.94;5093319;28;20168;-59
2022/10/04 08:02:56;;;;;;;1.65;0.75;;;;;;;16.86;48.36;98573.84;5093550;28;20160;-59
2022/10/04 08:05:41;;;;;;;0.75;0.70;;;;;;;16.92;48.06;98578.50;5093444;28;20655;-58
2022/10/04 08:08:36;;;;;;;1.42;0.80;;;;;;;17.09;48.47;98567.34;5093200;28;20238;-59
2022/10/04 08:11:20;;;;;;;0.65;0.60;;;;;;;17.15;47.28;98575.41;5065455;28;20210;-58
2022/10/04 08:13:52;;;;;;;0.77;0.70;;;;;;;17.14;47.41;98570.34;5092910;28;20247;-58
2022/10/04 08:16:48;;;;;;;1.63;0.80;;;;;;;17.27;47.84;98573.47;5093145;28;20171;-58
2022/10/04 08:19:35;;;;;;;0.55;0.55;;;;;;;17.41;47.51;98571.25;5092835;28;20263;-59
2022/10/04 08:22:32;;;;;;;1.65;0.75;;;;;;;17.47;47.07;98572.44;5092741;28;20159;-59
2022/10/04 08:25:25;;;;;;;1.67;1.00;;;;;;;17.52;47.32;98580.69;5092855;28;20156;-58
2022/10/04 08:31:26;;;;;;;1.80;0.93;;;;;;;17.51;47.80;98576.44;5092845;28;20207;-58
2022/10/04 08:33:56;;;;;;;2.00;0.70;;;;;;;17.44;47.92;98585.84;5092739;28;20186;-58
2022/10/04 08:36:31;;;;;;;1.17;1.08;;;;;;;17.33;48.38;98588.59;5091720;28;20225;-58
2022/10/04 08:38:58;;;;;;;0.70;0.70;;;;;;;17.31;48.94;98590.53;5092900;28;20255;-58
2022/10/04 08:41:57;;;;;;;2.20;1.00;;;;;;;17.42;49.15;98582.53;5092447;28;20597;-58
2022/10/04 08:44:41;;;;;;;4.90;0.98;;;;;;;17.52;48.57;98585.94;5092544;28;20164;-59
2022/10/04 08:47:28;;;;;;;1.13;1.00;;;;;;;17.58;47.74;98583.56;5092543;28;20774;-58
2022/10/04 08:50:23;;;;;;;1.05;0.95;;;;;;;17.66;48.23;98585.47;5092018;28;20582;-60
2022/10/04 08:53:14;;;;;;;5.32;1.00;;;;;;;17.71;47.42;98593.69;5092606;28;20251;-58
2022/10/04 08:55:52;;;;;;;4.13;1.20;;;;;;;17.80;47.63;98600.69;5092358;28;20175;-60
2022/10/04 08:59:08;;;;;;;3.70;0.90;;;;;;;17.87;47.91;98593.91;5092375;28;20171;-57
2022/10/04 09:01:56;;;;;;;1.40;0.80;;;;;;;17.84;47.57;98596.81;5032727;28;20191;-58
2022/10/04 09:04:56;;;;;;;2.88;0.73;;;;;;;17.82;47.66;98607.44;5092461;28;20618;-58
2022/10/04 09:07:54;;;;;;;1.02;0.90;;;;;;;17.82;48.15;98596.97;5092385;28;20183;-58
2022/10/04 09:10:39;;;;;;;0.98;0.98;;;;;;;17.79;48.13;98588.56;5047469;28;20191;-58
2022/10/04 09:13:04;;;;;;;0.98;0.98;;;;;;;17.84;47.73;98586.34;5092272;28;20171;-58
2022/10/04 09:15:47;;;;;;;2.28;0.95;;;;;;;17.97;47.88;98589.44;5091850;28;20209;-58
2022/10/04 09:18:47;;;;;;;2.15;1.23;;;;;;;18.08;47.02;98584.81;5092129;28;20740;-58
2022/10/04 09:21:27;;;;;;;0.75;0.75;;;;;;;18.03;47.24;98591.47;5091988;28;20195;-58
2022/10/04 09:24:03;;;;;;;1.08;1.08;;;;;;;17.98;47.74;98597.16;5091933;28;20199;-59
2022/10/04 09:26:50;;;;;;;2.05;0.90;;;;;;;17.97;47.48;98589.44;5091957;28;20187;-58
2022/10/04 09:29:25;;;;;;;1.08;0.90;;;;;;;17.96;47.20;98583.38;5092315;28;20187;-58
2022/10/04 09:32:05;;;;;;;0.95;0.90;;;;;;;17.96;47.99;98587.81;5092145;28;20179;-58
2022/10/04 09:34:58;;;;;;;1.23;0.80;;;;;;;18.14;47.71;98592.06;5092201;28;20228;-59
2022/10/04 09:37:42;;;;;;;0.90;0.90;;;;;;;18.23;47.29;98593.81;5092294;28;20231;-58
2022/10/04 09:40:33;;;;;;;1.77;1.10;;;;;;;18.32;46.34;98594.75;5091766;28;20160;-58
2022/10/04 09:43:26;;;;;;;2.47;1.13;;;;;;;18.32;46.91;98592.13;5092099;28;20573;-59
2022/10/04 09:46:10;;;;;;;0.77;0.65;;;;;;;18.37;45.56;98588.09;5091871;28;20192;-59
2022/10/04 09:48:55;;;;;;;2.53;0.80;;;;;;;18.44;45.01;98594.41;5091874;28;20167;-59
2022/10/04 09:51:47;;;;;;;2.97;0.85;;;;;;;18.53;44.98;98590.06;5092040;28;20199;-59
2022/10/04 09:54:37;;;;;;;3.70;0.95;;;;;;;18.66;44.30;98599.16;5090455;28;20322;-58
2022/10/04 09:57:25;;;;;;;2.08;0.80;;;;;;;18.63;44.22;98586.38;5091751;28;20195;-58
2022/10/04 10:00:05;;;;;;;0.88;0.88;;;;;;;18.67;44.17;98586.91;5091961;28;20171;-58
2022/10/04 10:02:37;;;;;;;0.95;0.80;;;;;;;18.82;44.52;98594.06;5094609;28;20160;-58
2022/10/04 10:05:02;;;;;;;0.70;0.70;;;;;;;18.95;42.51;98597.13;5094256;28;20751;-58
2022/10/04 10:07:39;;;;;;;2.70;0.88;;;;;;;19.04;42.89;98611.13;5095358;28;20282;-58
2022/10/04 10:13:44;;;;;;;0.60;0.60;;;;;;;18.81;42.08;98596.84;5064991;28;20206;-59
2022/10/04 10:16:33;;;;;;;0.80;0.80;;;;;;;18.82;42.06;98596.69;5095770;28;20159;-58
2022/10/04 10:19:29;;;;;;;0.80;0.80;;;;;;;18.90;42.66;98585.44;5095291;28;20225;-58
2022/10/04 10:22:13;;;;;;;5.10;1.10;;;;;;;19.16;42.60;98596.78;5095268;28;20204;-59
2022/10/04 10:25:06;;;;;;;1.63;0.77;;;;;;;19.21;42.67;98603.25;5095263;28;20164;-59
2022/10/04 10:27:34;;;;;;;1.20;0.80;;;;;;;19.25;42.88;98601.13;5094975;28;20207;-58
2022/10/04 10:30:23;;;;;;;0.90;0.90;;;;;;;19.43;42.72;98610.63;5095077;28;20172;-58
2022/10/04 10:33:20;;;;;;;1.25;0.60;;;;;;;19.72;41.60;98616.34;5095071;28;20167;-58
2022/10/04 10:35:55;;;;;;;0.75;0.70;;;;;;;19.93;40.38;98614.13;5093736;28;20160;-59
2022/10/04 10:38:55;;;;;;;0.98;0.60;;;;;;;20.10;39.93;98615.06;5093709;28;20660;-59
2022/10/04 10:41:34;;;;;;;0.90;0.90;;;;;;;20.24;40.10;98619.69;5095260;28;20156;-58
2022/10/04 10:44:02;;;;;;;0.80;0.80;;;;;;;20.41;39.71;98602.97;5095166;28;20164;-59
2022/10/04 10:46:53;;;;;;;1.88;0.80;;;;;;;20.58;38.87;98609.91;5095223;28;20210;-59
2022/10/04 10:49:47;;;;;;;3.65;0.93;;;;;;;20.73;39.05;98610.88;5094951;28;20191;-59
2022/10/04 10:52:34;;;;;;;0.90;0.65;;;;;;;20.38;38.30;98611.16;5094908;28;20230;-59
2022/10/04 10:55:48;;;;;;;0.68;0.68;;;;;;;20.07;39.06;98617.97;5093243;28;20512;-59
2022/10/04 10:58:53;;;;;;;1.75;0.70;;;;;;;20.20;38.61;98620.97;5071654;28;20274;-58
2022/10/04 11:02:04;;;;;;;2.33;1.42;;;;;;;20.32;38.38;98609.19;5028200;28;20195;-58
2022/10/04 11:04:56;;;;;;;0.98;0.70;;;;;;;20.15;38.57;98607.50;5094744;28;20174;-58
2022/10/04 11:07:40;;;;;;;1.55;0.70;;;;;;;19.96;38.81;98600.69;5094430;28;20261;-58
2022/10/04 11:10:18;;;;;;;1.88;0.80;;;;;;;19.82;39.39;98606.53;5093045;28;20557;-58
2022/10/04 11:12:52;;;;;;;3.17;0.90;;;;;;;19.81;39.85;98611.97;5092053;28;20172;-58
2022/10/04 11:15:55;;;;;;;0.50;0.50;;;;;;;19.72;39.96;98605.84;5092083;28;20258;-58
2022/10/04 11:19:05;;;;;;;1.15;0.73;;;;;;;19.74;40.09;98603.88;5094804;28;20594;-59
2022/10/04 11:22:23;;;;;;;5.07;0.80;;;;;;;19.74;40.24;98613.53;5073358;28;20688;-59
2022/10/04 11:25:24;;;;;;;0.70;0.70;;;;;;;19.64;39.88;98620.72;5094199;28;20242;-59
2022/10/04 11:28:04;;;;;;;1.08;0.70;;;;;;;19.49;38.64;98620.50;5094043;28;20214;-59
2022/10/04 11:30:53;;;;;;;1.73;0.65;;;;;;;19.41;38.82;98617.00;5092632;28;20724;-58
2022/10/04 11:33:33;;;;;;;0.70;0.70;;;;;;;19.58;39.61;98610.84;5094213;28;20301;-58
2022/10/04 11:36:24;;;;;;;0.88;0.77;;;;;;;19.92;39.29;98609.00;5092640;28;20198;-59
2022/10/04 11:39:02;;;;;;;2.60;0.75;;;;;;;20.07;38.93;98617.97;5093814;28;20164;-58
2022/10/04 11:41:30;;;;;;;0.50;0.50;;;;;;;20.11;38.99;98622.75;5094355;28;20167;-58
2022/10/04 11:44:33;;;;;;;0.63;0.63;;;;;;;20.08;38.63;98622.25;5092365;28;20198;-58
2022/10/04 11:47:01;;;;;;;2.22;0.70;;;;;;;20.19;38.52;98619.34;5093540;28;20195;-58
2022/10/04 11:49:36;;;;;;;0.60;0.60;;;;;;;20.38;39.17;98625.13;5092333;28;20183;-59
2022/10/04 11:52:29;;;;;;;2.75;0.65;;;;;;;20.53;38.15;98630.59;5093545;28;20641;-58
2022/10/04 11:55:26;;;;;;;0.60;0.60;;;;;;;20.57;37.56;98634.56;5093538;28;20164;-58
2022/10/04 11:57:58;;;;;;;0.68;0.68;;;;;;;20.54;37.57;98621.72;5093512;28;20247;-59
2022/10/04 12:00:28;;;;;;;1.50;0.57;;;;;;;20.59;37.56;98627.31;5093656;28;20160;-58
2022/10/04 12:03:13;;;;;;;1.05;0.90;;;;;;;20.60;37.35;98650.00;5093390;28;20171;-59
2022/10/04 12:06:22;;;;;;;2.75;0.70;;;;;;;20.65;37.54;98635.38;5093096;28;20255;-58
2022/10/04 12:09:25;;;;;;;0.60;0.60;;;;;;;20.73;36.68;98640.66;5093451;28;20156;-59
2022/10/04 12:15:17;;;;;;;1.40;0.70;;;;;;;20.81;36.68;98638.00;5093129;28;20662;-58
2022/10/04 12:18:16;;;;;;;2.13;0.50;;;;;;;20.90;36.77;98636.25;5093084;28;20196;-59
2022/10/04 12:20:52;;;;;;;0.77;0.60;;;;;;;20.97;36.70;98638.06;5092918;28;20825;-58
2022/10/04 12:23:47;;;;;;;0.82;0.80;;;;;;;21.00;36.64;98647.44;5093167;28;20179;-59
2022/10/04 12:26:39;;;;;;;1.00;0.90;;;;;;;20.77;37.03;98633.25;5092410;28;20241;-59
2022/10/04 12:29:35;;;;;;;0.82;0.70;;;;;;;20.65;37.03;98629.28;5093051;28;20164;-58
2022/10/04 12:32:11;;;;;;;4.57;0.70;;;;;;;20.49;37.93;98639.78;5093004;28;20266;-59
2022/10/04 12:34:54;;;;;;;2.10;0.63;;;;;;;20.26;38.44;98625.59;5092971;28;20156;-59
2022/10/04 12:37:27;;;;;;;0.80;0.80;;;;;;;20.19;38.11;98632.47;5092924;28;20151;-59
2022/10/04 12:39:52;;;;;;;2.72;0.93;;;;;;;20.18;38.64;98638.72;5092885;28;20183;-59
2022/10/04 12:42:24;;;;;;;1.55;0.60;;;;;;;20.20;37.41;98637.56;5092543;28;20250;-59
2022/10/04 12:45:02;;;;;;;0.90;0.90;;;;;;;20.18;37.46;98633.47;5092573;28;20160;-59
2022/10/04 12:47:49;;;;;;;0.90;0.90;;;;;;;20.25;37.91;98637.09;5092650;28;20187;-59
2022/10/04 12:50:50;;;;;;;0.90;0.80;;;;;;;20.19;38.43;98627.22;5092704;28;20187;-59